sensor_id;sensor_type;location;lat;lon;timestamp;P1;durP1;ratioP1;P2;durP2;ratioP2
4074;SDS011;2052;53.522;9.806;2023-12-07T00:01:35;112.80;;;34.77;;
4074;SDS011;2052;53.522;9.806;2023-12-07T00:04:02;95.00;;;35.07;;
4074;SDS011;2052;53.522;9.806;2023-12-07T00:06:29;94.57;;;32.97;;
4074;SDS011;2052;53.522;9.806;2023-12-07T00:08:57;103.53;;;36.37;;
4074;SDS011;2052;53.522;9.806;2023-12-07T00:11:25;107.37;;;33.53;;
4074;SDS011;2052;53.522;9.806;2023-12-07T00:13:52;108.37;;;33.40;;
4074;SDS011;2052;53.522;9.806;2023-12-07T00:16:18;99.23;;;36.33;;
4074;SDS011;2052;53.522;9.806;2023-12-07T00:18:45;94.57;;;31.80;;
4074;SDS011;2052;53.522;9.806;2023-12-07T00:21:11;98.53;;;33.07;;
4074;SDS011;2052;53.522;9.806;2023-12-07T00:23:38;89.73;;;34.53;;
4074;SDS011;2052;53.522;9.806;2023-12-07T00:26:06;84.03;;;31.97;;
4074;SDS011;2052;53.522;9.806;2023-12-07T00:28:32;86.27;;;33.60;;
4074;SDS011;2052;53.522;9.806;2023-12-07T00:30:59;89.40;;;32.00;;
4074;SDS011;2052;53.522;9.806;2023-12-07T00:33:28;87.53;;;34.30;;
4074;SDS011;2052;53.522;9.806;2023-12-07T00:35:55;89.10;;;31.43;;
4074;SDS011;2052;53.522;9.806;2023-12-07T00:38:21;85.73;;;32.13;;
4074;SDS011;2052;53.522;9.806;2023-12-07T00:40:48;90.47;;;31.90;;
4074;SDS011;2052;53.522;9.806;2023-12-07T00:43:16;86.73;;;31.67;;
4074;SDS011;2052;53.522;9.806;2023-12-07T00:45:43;92.97;;;32.03;;
4074;SDS011;2052;53.522;9.806;2023-12-07T00:48:10;89.87;;;30.57;;
4074;SDS011;2052;53.522;9.806;2023-12-07T00:50:36;89.73;;;30.53;;
4074;SDS011;2052;53.522;9.806;2023-12-07T00:53:03;78.30;;;29.70;;
4074;SDS011;2052;53.522;9.806;2023-12-07T00:55:29;95.23;;;31.40;;
4074;SDS011;2052;53.522;9.806;2023-12-07T00:57:56;74.50;;;29.33;;
4074;SDS011;2052;53.522;9.806;2023-12-07T01:00:26;85.73;;;32.73;;
4074;SDS011;2052;53.522;9.806;2023-12-07T01:02:53;82.90;;;31.00;;
4074;SDS011;2052;53.522;9.806;2023-12-07T01:05:20;75.87;;;31.07;;
4074;SDS011;2052;53.522;9.806;2023-12-07T01:07:46;83.77;;;29.10;;
4074;SDS011;2052;53.522;9.806;2023-12-07T01:10:13;77.20;;;28.93;;
4074;SDS011;2052;53.522;9.806;2023-12-07T01:12:40;80.80;;;31.70;;
4074;SDS011;2052;53.522;9.806;2023-12-07T01:15:06;87.80;;;28.03;;
4074;SDS011;2052;53.522;9.806;2023-12-07T01:17:35;77.53;;;29.83;;
4074;SDS011;2052;53.522;9.806;2023-12-07T01:20:02;83.80;;;28.13;;
4074;SDS011;2052;53.522;9.806;2023-12-07T01:22:32;84.63;;;30.33;;
4074;SDS011;2052;53.522;9.806;2023-12-07T01:24:58;85.17;;;29.40;;
4074;SDS011;2052;53.522;9.806;2023-12-07T01:27:25;78.90;;;31.70;;
4074;SDS011;2052;53.522;9.806;2023-12-07T01:29:51;79.83;;;31.73;;
4074;SDS011;2052;53.522;9.806;2023-12-07T01:32:18;76.37;;;29.70;;
4074;SDS011;2052;53.522;9.806;2023-12-07T01:34:46;78.33;;;30.33;;
4074;SDS011;2052;53.522;9.806;2023-12-07T01:37:12;81.83;;;30.50;;
4074;SDS011;2052;53.522;9.806;2023-12-07T01:39:39;68.90;;;27.07;;
4074;SDS011;2052;53.522;9.806;2023-12-07T01:42:07;66.83;;;29.27;;
4074;SDS011;2052;53.522;9.806;2023-12-07T01:44:34;80.97;;;29.07;;
4074;SDS011;2052;53.522;9.806;2023-12-07T01:47:01;69.20;;;29.00;;
4074;SDS011;2052;53.522;9.806;2023-12-07T01:49:28;73.83;;;27.97;;
4074;SDS011;2052;53.522;9.806;2023-12-07T01:51:57;66.63;;;27.57;;
4074;SDS011;2052;53.522;9.806;2023-12-07T01:54:24;70.13;;;28.63;;
4074;SDS011;2052;53.522;9.806;2023-12-07T01:56:51;70.40;;;27.03;;
4074;SDS011;2052;53.522;9.806;2023-12-07T01:59:18;71.53;;;28.20;;
4074;SDS011;2052;53.522;9.806;2023-12-07T02:01:44;79.10;;;28.53;;
4074;SDS011;2052;53.522;9.806;2023-12-07T02:04:11;69.47;;;27.97;;
4074;SDS011;2052;53.522;9.806;2023-12-07T02:06:38;70.70;;;26.77;;
4074;SDS011;2052;53.522;9.806;2023-12-07T02:09:07;76.70;;;27.00;;
4074;SDS011;2052;53.522;9.806;2023-12-07T02:11:33;80.47;;;29.07;;
4074;SDS011;2052;53.522;9.806;2023-12-07T02:14:00;73.37;;;29.70;;
4074;SDS011;2052;53.522;9.806;2023-12-07T02:16:29;62.67;;;25.50;;
4074;SDS011;2052;53.522;9.806;2023-12-07T02:18:59;73.20;;;26.53;;
4074;SDS011;2052;53.522;9.806;2023-12-07T02:21:30;67.30;;;29.07;;
4074;SDS011;2052;53.522;9.806;2023-12-07T02:24:00;80.90;;;28.03;;
4074;SDS011;2052;53.522;9.806;2023-12-07T02:26:31;71.40;;;28.57;;
4074;SDS011;2052;53.522;9.806;2023-12-07T02:28:58;75.77;;;27.07;;
4074;SDS011;2052;53.522;9.806;2023-12-07T02:31:24;70.47;;;28.27;;
4074;SDS011;2052;53.522;9.806;2023-12-07T02:33:51;64.53;;;27.13;;
4074;SDS011;2052;53.522;9.806;2023-12-07T02:36:19;67.47;;;27.50;;
4074;SDS011;2052;53.522;9.806;2023-12-07T02:38:47;68.60;;;27.07;;
4074;SDS011;2052;53.522;9.806;2023-12-07T02:41:16;66.07;;;28.97;;
4074;SDS011;2052;53.522;9.806;2023-12-07T02:43:44;75.97;;;28.33;;
4074;SDS011;2052;53.522;9.806;2023-12-07T02:46:11;57.93;;;25.70;;
4074;SDS011;2052;53.522;9.806;2023-12-07T02:48:37;61.47;;;28.30;;
4074;SDS011;2052;53.522;9.806;2023-12-07T02:51:04;57.50;;;26.00;;
4074;SDS011;2052;53.522;9.806;2023-12-07T02:53:33;66.80;;;27.97;;
4074;SDS011;2052;53.522;9.806;2023-12-07T02:56:00;75.77;;;26.10;;
4074;SDS011;2052;53.522;9.806;2023-12-07T02:58:27;64.67;;;26.00;;
4074;SDS011;2052;53.522;9.806;2023-12-07T03:00:55;72.27;;;26.60;;
4074;SDS011;2052;53.522;9.806;2023-12-07T03:03:21;60.80;;;26.83;;
4074;SDS011;2052;53.522;9.806;2023-12-07T03:05:48;73.80;;;26.40;;
4074;SDS011;2052;53.522;9.806;2023-12-07T03:08:15;61.57;;;26.20;;
4074;SDS011;2052;53.522;9.806;2023-12-07T03:10:41;66.27;;;27.27;;
4074;SDS011;2052;53.522;9.806;2023-12-07T03:13:08;68.83;;;25.50;;
4074;SDS011;2052;53.522;9.806;2023-12-07T03:15:34;61.63;;;25.10;;
4074;SDS011;2052;53.522;9.806;2023-12-07T03:18:02;58.50;;;27.10;;
4074;SDS011;2052;53.522;9.806;2023-12-07T03:20:29;68.77;;;27.90;;
4074;SDS011;2052;53.522;9.806;2023-12-07T03:22:56;65.07;;;25.53;;
4074;SDS011;2052;53.522;9.806;2023-12-07T03:25:22;63.33;;;25.20;;
4074;SDS011;2052;53.522;9.806;2023-12-07T03:27:49;65.67;;;25.87;;
4074;SDS011;2052;53.522;9.806;2023-12-07T03:30:16;62.93;;;27.10;;
4074;SDS011;2052;53.522;9.806;2023-12-07T03:32:43;65.00;;;27.33;;
4074;SDS011;2052;53.522;9.806;2023-12-07T03:35:10;68.17;;;26.77;;
4074;SDS011;2052;53.522;9.806;2023-12-07T03:37:37;63.63;;;25.13;;
4074;SDS011;2052;53.522;9.806;2023-12-07T03:40:04;63.23;;;27.07;;
4074;SDS011;2052;53.522;9.806;2023-12-07T03:42:31;62.03;;;25.70;;
4074;SDS011;2052;53.522;9.806;2023-12-07T03:44:58;59.60;;;24.87;;
4074;SDS011;2052;53.522;9.806;2023-12-07T03:47:26;58.27;;;25.93;;
4074;SDS011;2052;53.522;9.806;2023-12-07T03:49:53;60.63;;;25.60;;
4074;SDS011;2052;53.522;9.806;2023-12-07T03:52:21;58.47;;;25.43;;
4074;SDS011;2052;53.522;9.806;2023-12-07T03:54:48;61.83;;;25.70;;
4074;SDS011;2052;53.522;9.806;2023-12-07T03:57:14;61.47;;;25.37;;
4074;SDS011;2052;53.522;9.806;2023-12-07T03:59:41;57.03;;;25.50;;
4074;SDS011;2052;53.522;9.806;2023-12-07T04:02:07;53.97;;;24.23;;
4074;SDS011;2052;53.522;9.806;2023-12-07T04:04:34;61.97;;;27.23;;
4074;SDS011;2052;53.522;9.806;2023-12-07T04:07:01;53.13;;;23.07;;
4074;SDS011;2052;53.522;9.806;2023-12-07T04:09:29;56.33;;;22.53;;
4074;SDS011;2052;53.522;9.806;2023-12-07T04:11:55;59.83;;;25.63;;
4074;SDS011;2052;53.522;9.806;2023-12-07T04:14:22;55.77;;;26.93;;
4074;SDS011;2052;53.522;9.806;2023-12-07T04:16:48;54.50;;;25.30;;
4074;SDS011;2052;53.522;9.806;2023-12-07T04:19:15;60.20;;;25.50;;
4074;SDS011;2052;53.522;9.806;2023-12-07T04:21:42;62.80;;;25.47;;
4074;SDS011;2052;53.522;9.806;2023-12-07T04:24:09;54.40;;;24.70;;
4074;SDS011;2052;53.522;9.806;2023-12-07T04:26:37;64.23;;;25.40;;
4074;SDS011;2052;53.522;9.806;2023-12-07T04:29:04;51.27;;;23.10;;
4074;SDS011;2052;53.522;9.806;2023-12-07T04:31:30;63.90;;;25.40;;
4074;SDS011;2052;53.522;9.806;2023-12-07T04:33:57;56.70;;;25.20;;
4074;SDS011;2052;53.522;9.806;2023-12-07T04:36:24;53.70;;;23.97;;
4074;SDS011;2052;53.522;9.806;2023-12-07T04:38:51;55.23;;;23.07;;
4074;SDS011;2052;53.522;9.806;2023-12-07T04:41:17;58.73;;;24.30;;
4074;SDS011;2052;53.522;9.806;2023-12-07T04:43:45;64.93;;;26.33;;
4074;SDS011;2052;53.522;9.806;2023-12-07T04:46:12;54.13;;;24.17;;
4074;SDS011;2052;53.522;9.806;2023-12-07T04:48:38;58.17;;;25.90;;
4074;SDS011;2052;53.522;9.806;2023-12-07T04:51:05;58.30;;;23.27;;
4074;SDS011;2052;53.522;9.806;2023-12-07T04:53:32;58.83;;;26.10;;
4074;SDS011;2052;53.522;9.806;2023-12-07T04:55:59;60.43;;;24.43;;
4074;SDS011;2052;53.522;9.806;2023-12-07T04:58:25;64.50;;;27.17;;
4074;SDS011;2052;53.522;9.806;2023-12-07T05:00:54;58.10;;;28.17;;
4074;SDS011;2052;53.522;9.806;2023-12-07T05:03:20;65.63;;;28.30;;
4074;SDS011;2052;53.522;9.806;2023-12-07T05:05:47;60.43;;;25.63;;
4074;SDS011;2052;53.522;9.806;2023-12-07T05:08:15;62.60;;;27.60;;
4074;SDS011;2052;53.522;9.806;2023-12-07T05:10:41;68.40;;;29.47;;
4074;SDS011;2052;53.522;9.806;2023-12-07T05:13:08;73.03;;;27.37;;
4074;SDS011;2052;53.522;9.806;2023-12-07T05:15:34;73.77;;;30.63;;
4074;SDS011;2052;53.522;9.806;2023-12-07T05:18:02;63.77;;;27.00;;
4074;SDS011;2052;53.522;9.806;2023-12-07T05:20:29;56.67;;;26.00;;
4074;SDS011;2052;53.522;9.806;2023-12-07T05:22:56;57.43;;;27.00;;
4074;SDS011;2052;53.522;9.806;2023-12-07T05:25:22;59.23;;;27.70;;
4074;SDS011;2052;53.522;9.806;2023-12-07T05:27:49;62.87;;;26.80;;
4074;SDS011;2052;53.522;9.806;2023-12-07T05:30:15;67.37;;;27.30;;
4074;SDS011;2052;53.522;9.806;2023-12-07T05:32:43;64.47;;;27.70;;
4074;SDS011;2052;53.522;9.806;2023-12-07T05:35:11;62.07;;;27.33;;
4074;SDS011;2052;53.522;9.806;2023-12-07T05:37:38;69.50;;;28.73;;
4074;SDS011;2052;53.522;9.806;2023-12-07T05:40:05;64.10;;;29.50;;
4074;SDS011;2052;53.522;9.806;2023-12-07T05:42:33;55.50;;;27.33;;
4074;SDS011;2052;53.522;9.806;2023-12-07T05:44:59;65.87;;;27.80;;
4074;SDS011;2052;53.522;9.806;2023-12-07T05:47:26;61.90;;;28.80;;
4074;SDS011;2052;53.522;9.806;2023-12-07T05:49:52;62.50;;;28.57;;
4074;SDS011;2052;53.522;9.806;2023-12-07T05:52:23;67.47;;;29.90;;
4074;SDS011;2052;53.522;9.806;2023-12-07T05:54:50;68.03;;;27.93;;
4074;SDS011;2052;53.522;9.806;2023-12-07T05:57:16;58.27;;;27.57;;
4074;SDS011;2052;53.522;9.806;2023-12-07T05:59:43;62.87;;;27.60;;
4074;SDS011;2052;53.522;9.806;2023-12-07T06:02:10;63.60;;;28.57;;
4074;SDS011;2052;53.522;9.806;2023-12-07T06:04:36;64.33;;;29.60;;
4074;SDS011;2052;53.522;9.806;2023-12-07T06:07:03;73.83;;;30.40;;
4074;SDS011;2052;53.522;9.806;2023-12-07T06:09:31;68.33;;;29.27;;
4074;SDS011;2052;53.522;9.806;2023-12-07T06:11:57;60.07;;;27.43;;
4074;SDS011;2052;53.522;9.806;2023-12-07T06:14:24;74.30;;;29.90;;
4074;SDS011;2052;53.522;9.806;2023-12-07T06:16:51;63.40;;;29.17;;
4074;SDS011;2052;53.522;9.806;2023-12-07T06:19:17;62.37;;;28.33;;
4074;SDS011;2052;53.522;9.806;2023-12-07T06:21:44;60.30;;;25.90;;
4074;SDS011;2052;53.522;9.806;2023-12-07T06:24:10;57.90;;;25.93;;
4074;SDS011;2052;53.522;9.806;2023-12-07T06:26:39;65.40;;;28.20;;
4074;SDS011;2052;53.522;9.806;2023-12-07T06:29:06;64.97;;;27.07;;
4074;SDS011;2052;53.522;9.806;2023-12-07T06:31:33;58.13;;;26.30;;
4074;SDS011;2052;53.522;9.806;2023-12-07T06:33:59;60.13;;;26.47;;
4074;SDS011;2052;53.522;9.806;2023-12-07T06:36:27;60.20;;;26.10;;
4074;SDS011;2052;53.522;9.806;2023-12-07T06:38:54;56.13;;;26.53;;
4074;SDS011;2052;53.522;9.806;2023-12-07T06:41:21;59.90;;;25.10;;
4074;SDS011;2052;53.522;9.806;2023-12-07T06:43:48;67.57;;;27.47;;
4074;SDS011;2052;53.522;9.806;2023-12-07T06:46:15;53.23;;;25.63;;
4074;SDS011;2052;53.522;9.806;2023-12-07T06:48:42;56.90;;;25.13;;
4074;SDS011;2052;53.522;9.806;2023-12-07T06:51:08;56.67;;;25.23;;
4074;SDS011;2052;53.522;9.806;2023-12-07T06:53:35;61.60;;;27.33;;
4074;SDS011;2052;53.522;9.806;2023-12-07T06:56:02;68.30;;;29.10;;
4074;SDS011;2052;53.522;9.806;2023-12-07T06:58:28;57.80;;;28.37;;
4074;SDS011;2052;53.522;9.806;2023-12-07T07:00:56;73.77;;;28.70;;
4074;SDS011;2052;53.522;9.806;2023-12-07T07:03:23;66.60;;;28.00;;
4074;SDS011;2052;53.522;9.806;2023-12-07T07:05:49;67.83;;;26.87;;
4074;SDS011;2052;53.522;9.806;2023-12-07T07:08:16;63.90;;;28.50;;
4074;SDS011;2052;53.522;9.806;2023-12-07T07:10:43;60.43;;;27.67;;
4074;SDS011;2052;53.522;9.806;2023-12-07T07:13:10;58.73;;;27.03;;
4074;SDS011;2052;53.522;9.806;2023-12-07T07:15:36;58.60;;;25.60;;
4074;SDS011;2052;53.522;9.806;2023-12-07T07:18:04;57.87;;;26.63;;
4074;SDS011;2052;53.522;9.806;2023-12-07T07:20:31;58.70;;;26.87;;
4074;SDS011;2052;53.522;9.806;2023-12-07T07:22:57;56.50;;;25.70;;
4074;SDS011;2052;53.522;9.806;2023-12-07T07:25:24;58.40;;;25.60;;
4074;SDS011;2052;53.522;9.806;2023-12-07T07:27:50;65.20;;;27.37;;
4074;SDS011;2052;53.522;9.806;2023-12-07T07:30:19;52.20;;;23.80;;
4074;SDS011;2052;53.522;9.806;2023-12-07T07:32:46;63.87;;;28.50;;
4074;SDS011;2052;53.522;9.806;2023-12-07T07:35:17;57.37;;;26.73;;
4074;SDS011;2052;53.522;9.806;2023-12-07T07:37:44;58.57;;;25.13;;
4074;SDS011;2052;53.522;9.806;2023-12-07T07:40:10;67.00;;;25.97;;
4074;SDS011;2052;53.522;9.806;2023-12-07T07:42:37;58.60;;;25.50;;
4074;SDS011;2052;53.522;9.806;2023-12-07T07:45:05;55.70;;;25.63;;
4074;SDS011;2052;53.522;9.806;2023-12-07T07:47:32;61.27;;;26.87;;
4074;SDS011;2052;53.522;9.806;2023-12-07T07:49:59;63.87;;;26.60;;
4074;SDS011;2052;53.522;9.806;2023-12-07T07:52:31;59.87;;;29.43;;
4074;SDS011;2052;53.522;9.806;2023-12-07T07:54:59;63.70;;;27.00;;
4074;SDS011;2052;53.522;9.806;2023-12-07T07:57:26;55.50;;;26.50;;
4074;SDS011;2052;53.522;9.806;2023-12-07T07:59:52;60.57;;;25.80;;
4074;SDS011;2052;53.522;9.806;2023-12-07T08:02:19;68.70;;;26.97;;
4074;SDS011;2052;53.522;9.806;2023-12-07T08:04:46;64.67;;;29.40;;
4074;SDS011;2052;53.522;9.806;2023-12-07T08:07:13;59.07;;;27.00;;
4074;SDS011;2052;53.522;9.806;2023-12-07T08:09:41;63.43;;;26.87;;
4074;SDS011;2052;53.522;9.806;2023-12-07T08:12:07;59.30;;;27.60;;
4074;SDS011;2052;53.522;9.806;2023-12-07T08:14:34;64.73;;;26.60;;
4074;SDS011;2052;53.522;9.806;2023-12-07T08:17:01;64.90;;;29.17;;
4074;SDS011;2052;53.522;9.806;2023-12-07T08:19:28;63.50;;;28.00;;
4074;SDS011;2052;53.522;9.806;2023-12-07T08:21:54;60.70;;;26.77;;
4074;SDS011;2052;53.522;9.806;2023-12-07T08:24:21;57.23;;;28.30;;
4074;SDS011;2052;53.522;9.806;2023-12-07T08:26:49;58.13;;;27.20;;
4074;SDS011;2052;53.522;9.806;2023-12-07T08:29:15;52.00;;;25.30;;
4074;SDS011;2052;53.522;9.806;2023-12-07T08:31:42;64.60;;;27.00;;
4074;SDS011;2052;53.522;9.806;2023-12-07T08:34:09;52.33;;;25.50;;
4074;SDS011;2052;53.522;9.806;2023-12-07T08:36:35;62.80;;;28.20;;
4074;SDS011;2052;53.522;9.806;2023-12-07T08:39:02;58.07;;;26.37;;
4074;SDS011;2052;53.522;9.806;2023-12-07T08:41:29;58.60;;;24.07;;
4074;SDS011;2052;53.522;9.806;2023-12-07T08:43:56;58.27;;;27.47;;
4074;SDS011;2052;53.522;9.806;2023-12-07T08:46:23;52.80;;;24.50;;
4074;SDS011;2052;53.522;9.806;2023-12-07T08:48:50;57.20;;;26.30;;
4074;SDS011;2052;53.522;9.806;2023-12-07T08:51:17;62.83;;;29.87;;
4074;SDS011;2052;53.522;9.806;2023-12-07T08:53:44;70.20;;;28.60;;
4074;SDS011;2052;53.522;9.806;2023-12-07T08:56:11;56.43;;;27.73;;
4074;SDS011;2052;53.522;9.806;2023-12-07T08:58:38;61.10;;;26.80;;
4074;SDS011;2052;53.522;9.806;2023-12-07T09:01:06;55.40;;;24.40;;
4074;SDS011;2052;53.522;9.806;2023-12-07T09:03:32;58.27;;;25.67;;
4074;SDS011;2052;53.522;9.806;2023-12-07T09:05:59;57.50;;;25.47;;
4074;SDS011;2052;53.522;9.806;2023-12-07T09:08:26;50.87;;;26.00;;
4074;SDS011;2052;53.522;9.806;2023-12-07T09:10:53;58.20;;;26.17;;
4074;SDS011;2052;53.522;9.806;2023-12-07T09:13:22;49.97;;;23.67;;
4074;SDS011;2052;53.522;9.806;2023-12-07T09:15:48;67.50;;;29.40;;
4074;SDS011;2052;53.522;9.806;2023-12-07T09:18:16;55.80;;;26.10;;
4074;SDS011;2052;53.522;9.806;2023-12-07T09:20:43;67.33;;;28.13;;
4074;SDS011;2052;53.522;9.806;2023-12-07T09:23:11;56.73;;;26.97;;
4074;SDS011;2052;53.522;9.806;2023-12-07T09:25:40;59.60;;;25.77;;
4074;SDS011;2052;53.522;9.806;2023-12-07T09:28:06;68.83;;;31.47;;
4074;SDS011;2052;53.522;9.806;2023-12-07T09:30:33;60.53;;;28.87;;
4074;SDS011;2052;53.522;9.806;2023-12-07T09:32:59;64.23;;;26.23;;
4074;SDS011;2052;53.522;9.806;2023-12-07T09:35:29;60.63;;;26.20;;
4074;SDS011;2052;53.522;9.806;2023-12-07T09:37:55;56.77;;;26.43;;
4074;SDS011;2052;53.522;9.806;2023-12-07T09:40:22;50.70;;;22.67;;
4074;SDS011;2052;53.522;9.806;2023-12-07T09:42:50;49.30;;;22.40;;
4074;SDS011;2052;53.522;9.806;2023-12-07T09:45:18;50.33;;;22.63;;
4074;SDS011;2052;53.522;9.806;2023-12-07T09:47:46;49.67;;;21.87;;
4074;SDS011;2052;53.522;9.806;2023-12-07T09:50:15;56.70;;;23.60;;
4074;SDS011;2052;53.522;9.806;2023-12-07T09:52:44;50.13;;;22.47;;
4074;SDS011;2052;53.522;9.806;2023-12-07T09:55:10;69.77;;;23.67;;
4074;SDS011;2052;53.522;9.806;2023-12-07T09:57:37;56.10;;;22.57;;
4074;SDS011;2052;53.522;9.806;2023-12-07T10:00:04;56.80;;;23.87;;
4074;SDS011;2052;53.522;9.806;2023-12-07T10:02:36;66.40;;;25.30;;
4074;SDS011;2052;53.522;9.806;2023-12-07T10:05:04;74.67;;;22.40;;
4074;SDS011;2052;53.522;9.806;2023-12-07T10:07:31;92.37;;;25.73;;
4074;SDS011;2052;53.522;9.806;2023-12-07T10:10:01;69.47;;;21.23;;
4074;SDS011;2052;53.522;9.806;2023-12-07T10:12:28;124.13;;;24.03;;
4074;SDS011;2052;53.522;9.806;2023-12-07T10:14:55;58.23;;;22.50;;
4074;SDS011;2052;53.522;9.806;2023-12-07T10:17:21;49.07;;;21.87;;
4074;SDS011;2052;53.522;9.806;2023-12-07T10:19:54;51.00;;;21.30;;
4074;SDS011;2052;53.522;9.806;2023-12-07T10:22:33;58.13;;;20.17;;
4074;SDS011;2052;53.522;9.806;2023-12-07T10:25:01;52.17;;;22.83;;
4074;SDS011;2052;53.522;9.806;2023-12-07T10:27:28;57.17;;;22.30;;
4074;SDS011;2052;53.522;9.806;2023-12-07T10:29:55;51.00;;;19.27;;
4074;SDS011;2052;53.522;9.806;2023-12-07T10:32:25;60.07;;;22.67;;
4074;SDS011;2052;53.522;9.806;2023-12-07T10:34:51;54.57;;;21.73;;
4074;SDS011;2052;53.522;9.806;2023-12-07T10:37:18;56.17;;;23.67;;
4074;SDS011;2052;53.522;9.806;2023-12-07T10:39:44;41.30;;;20.50;;
4074;SDS011;2052;53.522;9.806;2023-12-07T10:42:12;53.27;;;22.10;;
4074;SDS011;2052;53.522;9.806;2023-12-07T10:44:41;49.63;;;20.70;;
4074;SDS011;2052;53.522;9.806;2023-12-07T10:47:08;51.13;;;23.50;;
4074;SDS011;2052;53.522;9.806;2023-12-07T10:49:36;51.83;;;23.43;;
4074;SDS011;2052;53.522;9.806;2023-12-07T10:52:06;46.17;;;20.70;;
4074;SDS011;2052;53.522;9.806;2023-12-07T10:54:35;48.80;;;21.57;;
4074;SDS011;2052;53.522;9.806;2023-12-07T10:57:06;47.60;;;20.10;;
4074;SDS011;2052;53.522;9.806;2023-12-07T10:59:34;43.57;;;19.83;;
4074;SDS011;2052;53.522;9.806;2023-12-07T11:02:01;53.93;;;23.73;;
4074;SDS011;2052;53.522;9.806;2023-12-07T11:04:28;44.63;;;20.57;;
4074;SDS011;2052;53.522;9.806;2023-12-07T11:06:56;45.20;;;22.17;;
4074;SDS011;2052;53.522;9.806;2023-12-07T11:09:27;49.23;;;24.43;;
4074;SDS011;2052;53.522;9.806;2023-12-07T11:11:56;61.83;;;25.87;;
4074;SDS011;2052;53.522;9.806;2023-12-07T11:14:24;54.57;;;26.33;;
4074;SDS011;2052;53.522;9.806;2023-12-07T11:16:52;54.80;;;22.70;;
4074;SDS011;2052;53.522;9.806;2023-12-07T11:22:10;54.77;;;22.60;;
4074;SDS011;2052;53.522;9.806;2023-12-07T11:24:37;50.73;;;22.33;;
4074;SDS011;2052;53.522;9.806;2023-12-07T11:27:05;51.83;;;22.13;;
4074;SDS011;2052;53.522;9.806;2023-12-07T11:29:32;58.20;;;23.20;;
4074;SDS011;2052;53.522;9.806;2023-12-07T11:32:01;48.43;;;22.47;;
4074;SDS011;2052;53.522;9.806;2023-12-07T11:34:34;58.27;;;24.20;;
4074;SDS011;2052;53.522;9.806;2023-12-07T11:37:01;52.87;;;23.33;;
4074;SDS011;2052;53.522;9.806;2023-12-07T11:39:28;55.23;;;24.63;;
4074;SDS011;2052;53.522;9.806;2023-12-07T11:41:55;53.33;;;23.93;;
4074;SDS011;2052;53.522;9.806;2023-12-07T11:44:24;54.83;;;23.50;;
4074;SDS011;2052;53.522;9.806;2023-12-07T11:46:50;58.53;;;23.00;;
4074;SDS011;2052;53.522;9.806;2023-12-07T11:49:18;52.30;;;23.20;;
4074;SDS011;2052;53.522;9.806;2023-12-07T11:51:47;52.87;;;23.50;;
4074;SDS011;2052;53.522;9.806;2023-12-07T11:54:14;49.90;;;21.07;;
4074;SDS011;2052;53.522;9.806;2023-12-07T11:56:42;47.80;;;23.40;;
4074;SDS011;2052;53.522;9.806;2023-12-07T11:59:08;60.23;;;25.43;;
4074;SDS011;2052;53.522;9.806;2023-12-07T12:01:35;53.47;;;23.30;;
4074;SDS011;2052;53.522;9.806;2023-12-07T12:04:02;60.40;;;23.57;;
4074;SDS011;2052;53.522;9.806;2023-12-07T12:06:30;61.57;;;26.33;;
4074;SDS011;2052;53.522;9.806;2023-12-07T12:08:57;55.63;;;23.53;;
4074;SDS011;2052;53.522;9.806;2023-12-07T12:11:23;53.70;;;23.07;;
4074;SDS011;2052;53.522;9.806;2023-12-07T12:13:50;60.53;;;22.97;;
4074;SDS011;2052;53.522;9.806;2023-12-07T12:16:17;53.03;;;21.70;;
4074;SDS011;2052;53.522;9.806;2023-12-07T12:18:43;50.77;;;21.17;;
4074;SDS011;2052;53.522;9.806;2023-12-07T12:21:10;56.10;;;23.70;;
4074;SDS011;2052;53.522;9.806;2023-12-07T12:23:38;49.80;;;22.87;;
4074;SDS011;2052;53.522;9.806;2023-12-07T12:26:05;50.87;;;21.50;;
4074;SDS011;2052;53.522;9.806;2023-12-07T12:28:33;50.37;;;21.37;;
4074;SDS011;2052;53.522;9.806;2023-12-07T12:31:03;51.80;;;22.07;;
4074;SDS011;2052;53.522;9.806;2023-12-07T12:33:30;51.27;;;20.27;;
4074;SDS011;2052;53.522;9.806;2023-12-07T12:36:01;51.77;;;22.30;;
4074;SDS011;2052;53.522;9.806;2023-12-07T12:38:29;51.03;;;22.97;;
4074;SDS011;2052;53.522;9.806;2023-12-07T12:40:57;50.70;;;21.67;;
4074;SDS011;2052;53.522;9.806;2023-12-07T12:43:23;46.90;;;21.73;;
4074;SDS011;2052;53.522;9.806;2023-12-07T12:45:50;49.17;;;22.53;;
4074;SDS011;2052;53.522;9.806;2023-12-07T12:48:17;50.13;;;23.37;;
4074;SDS011;2052;53.522;9.806;2023-12-07T12:50:43;51.50;;;22.10;;
4074;SDS011;2052;53.522;9.806;2023-12-07T12:53:10;51.20;;;23.10;;
4074;SDS011;2052;53.522;9.806;2023-12-07T12:55:39;50.60;;;22.13;;
4074;SDS011;2052;53.522;9.806;2023-12-07T12:58:09;51.90;;;23.53;;
4074;SDS011;2052;53.522;9.806;2023-12-07T13:00:37;46.57;;;21.57;;
4074;SDS011;2052;53.522;9.806;2023-12-07T13:03:05;58.80;;;23.77;;
4074;SDS011;2052;53.522;9.806;2023-12-07T13:05:32;55.73;;;23.67;;
4074;SDS011;2052;53.522;9.806;2023-12-07T13:07:59;49.73;;;23.27;;
4074;SDS011;2052;53.522;9.806;2023-12-07T13:10:26;55.63;;;24.30;;
4074;SDS011;2052;53.522;9.806;2023-12-07T13:12:53;51.70;;;23.13;;
4074;SDS011;2052;53.522;9.806;2023-12-07T13:15:22;49.60;;;22.07;;
4074;SDS011;2052;53.522;9.806;2023-12-07T13:17:50;46.93;;;21.37;;
4074;SDS011;2052;53.522;9.806;2023-12-07T13:20:16;51.23;;;23.03;;
4074;SDS011;2052;53.522;9.806;2023-12-07T13:23:00;54.33;;;22.90;;
4074;SDS011;2052;53.522;9.806;2023-12-07T13:25:27;49.33;;;21.03;;
4074;SDS011;2052;53.522;9.806;2023-12-07T13:27:53;43.90;;;20.53;;
4074;SDS011;2052;53.522;9.806;2023-12-07T13:30:21;51.83;;;22.37;;
4074;SDS011;2052;53.522;9.806;2023-12-07T13:32:50;51.73;;;22.40;;
4074;SDS011;2052;53.522;9.806;2023-12-07T13:35:16;53.93;;;25.10;;
4074;SDS011;2052;53.522;9.806;2023-12-07T13:37:43;45.87;;;21.57;;
4074;SDS011;2052;53.522;9.806;2023-12-07T13:40:10;48.43;;;23.30;;
4074;SDS011;2052;53.522;9.806;2023-12-07T13:42:37;54.30;;;21.43;;
4074;SDS011;2052;53.522;9.806;2023-12-07T13:45:04;48.07;;;21.80;;
4074;SDS011;2052;53.522;9.806;2023-12-07T13:47:34;55.33;;;22.60;;
4074;SDS011;2052;53.522;9.806;2023-12-07T13:50:03;59.20;;;23.20;;
4074;SDS011;2052;53.522;9.806;2023-12-07T13:52:31;49.97;;;22.17;;
4074;SDS011;2052;53.522;9.806;2023-12-07T13:54:58;51.50;;;24.03;;
4074;SDS011;2052;53.522;9.806;2023-12-07T13:57:24;57.83;;;24.37;;
4074;SDS011;2052;53.522;9.806;2023-12-07T13:59:51;46.90;;;21.60;;
4074;SDS011;2052;53.522;9.806;2023-12-07T14:02:18;50.27;;;23.07;;
4074;SDS011;2052;53.522;9.806;2023-12-07T14:04:46;45.53;;;20.77;;
4074;SDS011;2052;53.522;9.806;2023-12-07T14:07:15;51.37;;;22.30;;
4074;SDS011;2052;53.522;9.806;2023-12-07T14:09:43;53.53;;;22.47;;
4074;SDS011;2052;53.522;9.806;2023-12-07T14:12:11;51.33;;;24.00;;
4074;SDS011;2052;53.522;9.806;2023-12-07T14:14:38;47.47;;;20.50;;
4074;SDS011;2052;53.522;9.806;2023-12-07T14:17:04;44.07;;;21.07;;
4074;SDS011;2052;53.522;9.806;2023-12-07T14:19:31;41.00;;;19.97;;
4074;SDS011;2052;53.522;9.806;2023-12-07T14:21:59;46.70;;;20.67;;
4074;SDS011;2052;53.522;9.806;2023-12-07T14:24:26;42.23;;;19.00;;
4074;SDS011;2052;53.522;9.806;2023-12-07T14:26:53;44.07;;;20.37;;
4074;SDS011;2052;53.522;9.806;2023-12-07T14:29:20;44.80;;;19.53;;
4074;SDS011;2052;53.522;9.806;2023-12-07T14:31:47;46.50;;;21.20;;
4074;SDS011;2052;53.522;9.806;2023-12-07T14:34:14;47.60;;;21.40;;
4074;SDS011;2052;53.522;9.806;2023-12-07T14:36:41;51.23;;;21.43;;
4074;SDS011;2052;53.522;9.806;2023-12-07T14:39:10;49.97;;;21.50;;
4074;SDS011;2052;53.522;9.806;2023-12-07T14:41:41;54.47;;;21.23;;
4074;SDS011;2052;53.522;9.806;2023-12-07T14:44:09;56.30;;;26.00;;
4074;SDS011;2052;53.522;9.806;2023-12-07T14:46:36;47.63;;;21.60;;
4074;SDS011;2052;53.522;9.806;2023-12-07T14:49:02;58.63;;;24.57;;
4074;SDS011;2052;53.522;9.806;2023-12-07T14:51:29;48.83;;;22.40;;